• Join FlightAware (Why Join?)
  • Login
  • US Flag 
11:23AM EDT


 

Airport Tracker/Info


-or-


 

Live Flight TrackerFlight Track Log ✈ SWA2131 ✈ 13-Apr-2013 ✈ KSAN - KDEN

Flight Track Log - Related Links

Times and Time Zones

All times are in EDT time to prevent confusion due to time zone crossing. See the SWA2131 flight status page for this flight to view local times or setup timezone preferences in your user account.

Time Position Orientation Groundspeed Altitude Reporting Facility
EDT Latitude Longitude Course Direction KTS MPH feet Rate Location/Type
01:12PM 32.7500 -117.3000 270° West 237 273 4,200  Level Southern California TRACON
01:13PM 32.7000 -117.3167 196° South 293 337 8,000 3,000 Climbing Southern California TRACON
01:15PM 32.6492 -117.2261 124° Southeast 301 346 11,000 2,820 Climbing Los Angeles Center
01:16PM 32.6258 -117.0853 101° East 355 409 14,600 3,060 Climbing Los Angeles Center
01:17PM 32.6117 -116.9589 98° East 378 435 17,400 2,640 Climbing Los Angeles Center
01:18PM 32.6261 -116.8267 83° East 401 461 20,100 2,460 Climbing Los Angeles Center
01:19PM 32.7067 -116.7422 41° Northeast 403 464 22,600 1,380 Climbing Los Angeles Center
01:20PM 32.8100 -116.6897 23° Northeast 405 466 23,000 960 Climbing Los Angeles Center
01:21PM 32.9131 -116.6244 28° Northeast 412 474 24,700 1,740 Climbing Los Angeles Center
01:22PM 33.0214 -116.5539 29° Northeast 432 497 26,600 1,080 Climbing Los Angeles Center
01:23PM 33.1281 -116.4853 28° Northeast 431 496 27,000 960 Climbing Los Angeles Center
01:24PM 33.2556 -116.4025 28° Northeast 431 496 28,600 1,680 Climbing Los Angeles Center
01:25PM 33.3650 -116.3317 28° Northeast 442 509 30,500 1,440 Climbing Los Angeles Center
01:26PM 33.4736 -116.2608 29° Northeast 445 512 32,000 660 Climbing Los Angeles Center
01:27PM 33.5781 -116.1917 29° Northeast 434 499 32,000 300 Level Los Angeles Center
01:28PM 33.6842 -116.0781 42° Northeast 434 499 32,700 1,380 Climbing Los Angeles Center
01:29PM 33.7614 -115.9642 51° Northeast 439 505 34,900 1,980 Climbing Los Angeles Center
01:30PM 33.8492 -115.8364 50° Northeast 419 482 36,800 960 Climbing Los Angeles Center
01:32PM 33.9231 -115.7278 51° Northeast 418 481 37,000 60 Climbing Los Angeles Center
01:33PM 33.9986 -115.6175 50° Northeast 424 488 37,000  Level Los Angeles Center
01:34PM 34.0728 -115.5083 51° Northeast 423 487 37,000  Level Los Angeles Center
01:35PM 34.1467 -115.3994 51° Northeast 421 484 37,000  Level Los Angeles Center
01:36PM 34.2203 -115.2894 51° Northeast 422 486 37,000 -600 Level Los Angeles Center
01:37PM 34.3106 -115.1581 50° Northeast 423 487 35,800 -1,020 Descending Los Angeles Center
01:38PM 34.3853 -115.0472 51° Northeast 426 490 34,900 -960 Descending Los Angeles Center
01:39PM 34.4586 -114.9344 52° Northeast 425 489 33,900 -960 Descending Los Angeles Center
01:40PM 34.5317 -114.8281 50° Northeast 412 474 33,000 -480 Descending Los Angeles Center
01:41PM 34.6036 -114.7192 51° Northeast 412 474 33,000  Level Los Angeles Center
01:42PM 34.6808 -114.6014 51° Northeast 415 478 33,000  Level Los Angeles Center
01:43PM 34.7533 -114.4925 51° Northeast 414 476 33,000  Level Los Angeles Center
01:44PM 34.8225 -114.3450 60° Northeast 420 483 33,000  Level Los Angeles Center
01:45PM 34.8772 -114.2208 62° Northeast 417 480 33,000  Level Los Angeles Center
01:46PM 34.9322 -114.0947 62° Northeast 419 482 33,000  Level Los Angeles Center
01:47PM 34.9875 -113.9678 62° Northeast 423 487 33,000  Level Los Angeles Center
01:48PM 35.0458 -113.8367 61° Northeast 426 490 33,000  Level Los Angeles Center
01:49PM 35.1003 -113.7100 62° Northeast 423 487 33,000  Level Los Angeles Center
01:50PM 35.1550 -113.5844 62° Northeast 420 483 33,000  Level Los Angeles Center
01:51PM 35.2206 -113.4319 62° Northeast 424 488 33,000  Level Los Angeles Center
01:53PM 35.2887 -113.2618 64° Northeast  Level FlightAware Approximate
01:53PM 35.3289 -113.1800 64° Northeast 422 486 33,000  Level Los Angeles Center
01:54PM 35.3836 -113.0522 62° Northeast 423 487 33,000  Level Los Angeles Center
01:55PM 35.4425 -112.9125 63° Northeast 426 490 33,000  Level Los Angeles Center
01:56PM 35.4958 -112.7872 62° Northeast 418 481 33,000  Level Los Angeles Center
01:57PM 35.5492 -112.6592 63° Northeast 421 484 33,000  Level Los Angeles Center
01:58PM 35.6044 -112.5278 63° Northeast 429 494 33,000  Level Los Angeles Center
01:59PM 35.6689 -112.3722 63° Northeast 428 493 33,100 780 Climbing Los Angeles Center
02:00PM 35.7253 -112.2403 62° Northeast 434 499 34,700 900 Climbing Los Angeles Center
02:02PM 35.7792 -112.1072 63° Northeast 437 503 35,000 120 Climbing Los Angeles Center
02:03PM 35.8350 -111.9750 62° Northeast 438 504 35,000  Level Los Angeles Center
02:04PM 35.8764 -111.8678 65° Northeast 436 502 35,000  Level Los Angeles Center
02:05PM 35.9533 -111.6819 63° Northeast 435 501 35,000  Level Los Angeles Center
02:06PM 36.0089 -111.5481 63° Northeast 438 504 35,000  Level Denver Center
02:07PM 36.0633 -111.4156 63° Northeast 436 502 35,000  Level Denver Center
02:08PM 36.1172 -111.2817 63° Northeast 436 502 35,000  Level Denver Center
02:09PM 36.1778 -111.1536 60° Northeast 434 499 35,000  Level Denver Center
02:10PM 36.2400 -111.0267 59° Northeast 433 498 35,000  Level Denver Center
02:11PM 36.3142 -110.8711 59° Northeast 437 503 35,000  Level Denver Center
02:12PM 36.3750 -110.7447 59° Northeast 432 497 35,000  Level Denver Center
02:13PM 36.4369 -110.6158 59° Northeast 435 501 35,000  Level Denver Center
02:14PM 36.4853 -110.5133 60° Northeast 433 498 35,000  Level Denver Center
02:15PM 36.5583 -110.3586 60° Northeast 434 499 35,000  Level Denver Center
02:16PM 36.6158 -110.2328 60° Northeast 427 491 35,000  Level Denver Center
02:17PM 36.6808 -110.0956 59° Northeast 433 498 35,000  Level Denver Center
02:18PM 36.7486 -109.9511 60° Northeast 431 496 35,000  Level Denver Center
02:19PM 36.8064 -109.8264 60° Northeast 432 497 35,000  Level Denver Center
02:20PM 36.8725 -109.6822 60° Northeast 428 493 35,000  Level Denver Center
02:21PM 36.9303 -109.5575 60° Northeast 430 495 35,000  Level Denver Center
02:22PM 36.9786 -109.4536 60° Northeast 431 496 35,000  Level Denver Center
02:23PM 37.0550 -109.2867 60° Northeast 433 498 35,000  Level Denver Center
02:24PM 37.1133 -109.1597 60° Northeast 436 502 35,000  Level Denver Center
02:25PM 37.1800 -109.0114 61° Northeast 436 502 35,000  Level Denver Center
02:26PM 37.2375 -108.8839 60° Northeast 438 504 35,000  Level Denver Center
02:27PM 37.2947 -108.7564 61° Northeast 437 503 35,000  Level Denver Center
02:28PM 37.3625 -108.6058 60° Northeast 441 507 35,000  Level Denver Center
02:29PM 37.4189 -108.4789 61° Northeast 438 504 35,000  Level Denver Center
02:30PM 37.4850 -108.3311 61° Northeast 435 501 35,000  Level Denver Center
02:31PM 37.5333 -108.2219 61° Northeast 441 507 35,000  Level Denver Center
02:32PM 37.5994 -108.0708 61° Northeast 441 507 35,000  Level Denver Center
02:33PM 37.6658 -107.9203 61° Northeast 440 506 35,000  Level Denver Center
02:34PM 37.7222 -107.7914 61° Northeast 439 505 35,000  Level Denver Center
02:35PM 37.7883 -107.6403 61° Northeast 440 506 35,000  Level Denver Center
02:36PM 37.8456 -107.5061 62° Northeast 447 514 35,000  Level Denver Center
02:37PM 37.9133 -107.3522 61° Northeast 448 516 35,000  Level Denver Center
02:39PM 37.9700 -107.2186 62° Northeast 448 516 35,000  Level Denver Center
02:40PM 38.0297 -107.0794 61° Northeast 449 517 35,000  Level Denver Center
02:41PM 38.0858 -106.9494 61° Northeast 446 513 35,000  Level Denver Center
02:42PM 38.1511 -106.7931 62° Northeast 444 511 35,000 -480 Level Denver Center
02:43PM 38.2078 -106.6597 62° Northeast 450 518 34,100 -1,020 Descending Denver Center
02:44PM 38.2922 -106.5239 52° Northeast 440 506 33,000 -1,020 Descending Denver Center
02:45PM 38.3617 -106.4372 44° Northeast 437 503 32,100 -960 Descending Denver Center
02:46PM 38.4467 -106.3308 44° Northeast 430 495 31,100 -1,080 Descending Denver Center
02:47PM 38.5464 -106.2067 44° Northeast 418 481 29,900 -1,080 Descending Denver Center
02:48PM 38.6275 -106.1064 44° Northeast 409 471 28,900 -1,020 Descending Denver Center
02:49PM 38.7089 -106.0039 44° Northeast 407 468 27,900 -1,080 Descending Denver Center
02:50PM 38.8053 -105.8814 45° Northeast 415 478 26,800 -1,020 Descending Denver Center
02:51PM 38.8806 -105.7861 45° Northeast 420 483 25,900 -1,020 Descending Denver Center
02:52PM 38.9753 -105.6644 45° Northeast 427 491 24,800 -1,080 Descending Denver Center
02:53PM 39.0550 -105.5633 45° Northeast 422 486 23,800 -1,080 Descending Denver Center
02:54PM 39.1406 -105.4533 45° Northeast 414 476 22,700 -1,140 Descending Denver Center
02:55PM 39.2222 -105.3531 44° Northeast 395 455 21,500 -1,080 Descending Denver Center
02:56PM 39.3019 -105.2589 42° Northeast 362 417 20,500 -1,080 Descending Denver Center
02:57PM 39.3769 -105.1889 36° Northeast 335 386 19,300 -1,680 Descending Denver Center
02:58PM 39.4458 -105.1192 38° Northeast 316 364 17,200 -1,680 Descending Denver Center
02:59PM 39.5219 -105.0464 36° Northeast 315 362 15,900 -900 Descending Denver Center
03:00PM 39.5889 -104.9789 38° Northeast 302 348 15,400 -840 Descending Denver Center
03:01PM 39.6519 -104.9178 37° Northeast 284 327 14,300 -1,080 Descending Denver Center
03:02PM 39.7192 -104.8528 37° Northeast 284 327 13,100 -1,080 Descending Denver Center
03:03PM 39.8028 -104.8403 North 263 303 12,000 -1,080 Descending Denver Center
03:04PM 39.8828 -104.8392 North 263 303 11,000 -600 Descending Denver Center
03:05PM 39.9528 -104.8383 North 251 289 10,800 -660 Descending Denver Center
03:06PM 40.0239 -104.8397 359° North 254 292 9,700 -1,080 Descending Denver Center
03:07PM 40.0942 -104.8253 North 264 304 8,600 -1,320 Descending Denver Center
03:08PM 40.0753 -104.7500 108° East 239 275 7,100 -840 Descending Denver Center
03:09PM 40.0225 -104.7175 155° Southeast 203 234 7,000 -120 Descending Denver Center
03:10PM 39.9744 -104.6964 161° South 183 211 6,900 -540 Descending Denver Center
03:12PM 39.9264 -104.6956 179° South 161 185 6,000 -840 Descending Denver Center
03:13PM 39.8864 -104.6967 181° South 155 178 5,300 -720 Descending Denver Center
03:15PM 39.8617 -104.6732 North  Level Estimated
03:22PM 39.8617 -104.6732 North  Level Estimated
03:23PM 39.8617 -104.6732 North  Level Estimated
03:24PM 39.8617 -104.6732 North  Level Estimated